sensor_id;sensor_type;location;lat;lon;timestamp;pressure;altitude;pressure_sealevel;temperature
7389;BMP180;3735;50.136;11.062;2022-08-01T00:00:39;98050.00;;;20.00
7389;BMP180;3735;50.136;11.062;2022-08-01T00:03:05;98038.00;;;20.00
7389;BMP180;3735;50.136;11.062;2022-08-01T00:05:31;98052.00;;;19.90
7389;BMP180;3735;50.136;11.062;2022-08-01T00:07:58;98049.00;;;19.80
7389;BMP180;3735;50.136;11.062;2022-08-01T00:10:24;98060.00;;;19.80
7389;BMP180;3735;50.136;11.062;2022-08-01T00:12:49;98047.00;;;19.80
7389;BMP180;3735;50.136;11.062;2022-08-01T00:15:16;98047.00;;;19.70
7389;BMP180;3735;50.136;11.062;2022-08-01T00:17:43;98054.00;;;19.70
7389;BMP180;3735;50.136;11.062;2022-08-01T00:20:12;98054.00;;;19.60
7389;BMP180;3735;50.136;11.062;2022-08-01T00:22:38;98056.00;;;19.60
7389;BMP180;3735;50.136;11.062;2022-08-01T00:25:05;98052.00;;;19.50
7389;BMP180;3735;50.136;11.062;2022-08-01T00:27:32;98053.00;;;19.40
7389;BMP180;3735;50.136;11.062;2022-08-01T00:29:58;98056.00;;;19.40
7389;BMP180;3735;50.136;11.062;2022-08-01T00:32:24;98057.00;;;19.30
7389;BMP180;3735;50.136;11.062;2022-08-01T00:34:50;98052.00;;;19.30
7389;BMP180;3735;50.136;11.062;2022-08-01T00:37:16;98050.00;;;19.20
7389;BMP180;3735;50.136;11.062;2022-08-01T00:39:42;98056.00;;;19.10
7389;BMP180;3735;50.136;11.062;2022-08-01T00:42:12;98059.00;;;19.10
7389;BMP180;3735;50.136;11.062;2022-08-01T00:44:39;98058.00;;;19.00
7389;BMP180;3735;50.136;11.062;2022-08-01T00:47:06;98055.00;;;18.80
7389;BMP180;3735;50.136;11.062;2022-08-01T00:49:32;98050.00;;;18.70
7389;BMP180;3735;50.136;11.062;2022-08-01T00:51:59;98056.00;;;18.60
7389;BMP180;3735;50.136;11.062;2022-08-01T00:54:26;98054.00;;;18.40
7389;BMP180;3735;50.136;11.062;2022-08-01T00:56:53;98059.00;;;18.30
7389;BMP180;3735;50.136;11.062;2022-08-01T00:59:22;98053.00;;;18.20
7389;BMP180;3735;50.136;11.062;2022-08-01T01:01:48;98058.00;;;18.20
7389;BMP180;3735;50.136;11.062;2022-08-01T01:04:14;98061.00;;;18.30
7389;BMP180;3735;50.136;11.062;2022-08-01T01:07:07;98060.00;;;18.30
7389;BMP180;3735;50.136;11.062;2022-08-01T01:09:44;98056.00;;;18.30
7389;BMP180;3735;50.136;11.062;2022-08-01T01:15:30;98057.00;;;18.40
7389;BMP180;3735;50.136;11.062;2022-08-01T01:18:02;98051.00;;;18.40
7389;BMP180;3735;50.136;11.062;2022-08-01T01:20:36;98052.00;;;18.40
7389;BMP180;3735;50.136;11.062;2022-08-01T01:31:51;98050.00;;;18.80
7389;BMP180;3735;50.136;11.062;2022-08-01T01:34:22;98054.00;;;19.00
7389;BMP180;3735;50.136;11.062;2022-08-01T01:36:52;98062.00;;;19.20
7389;BMP180;3735;50.136;11.062;2022-08-01T01:39:21;98060.00;;;19.50
7389;BMP180;3735;50.136;11.062;2022-08-01T01:41:50;98056.00;;;19.60
7389;BMP180;3735;50.136;11.062;2022-08-01T01:44:18;98052.00;;;19.70
7389;BMP180;3735;50.136;11.062;2022-08-01T01:46:46;98050.00;;;19.80
7389;BMP180;3735;50.136;11.062;2022-08-01T01:49:13;98060.00;;;19.90
7389;BMP180;3735;50.136;11.062;2022-08-01T01:51:42;98058.00;;;19.90
7389;BMP180;3735;50.136;11.062;2022-08-01T01:54:10;98057.00;;;19.90
7389;BMP180;3735;50.136;11.062;2022-08-01T01:56:39;98056.00;;;19.90
7389;BMP180;3735;50.136;11.062;2022-08-01T01:59:20;98062.00;;;19.90
7389;BMP180;3735;50.136;11.062;2022-08-01T02:01:49;98069.00;;;19.90
7389;BMP180;3735;50.136;11.062;2022-08-01T02:04:17;98070.00;;;19.90
7389;BMP180;3735;50.136;11.062;2022-08-01T02:06:50;98068.00;;;19.80
7389;BMP180;3735;50.136;11.062;2022-08-01T02:09:21;98066.00;;;19.90
7389;BMP180;3735;50.136;11.062;2022-08-01T02:11:49;98070.00;;;19.80
7389;BMP180;3735;50.136;11.062;2022-08-01T02:14:18;98075.00;;;19.70
7389;BMP180;3735;50.136;11.062;2022-08-01T02:16:48;98081.00;;;19.60
7389;BMP180;3735;50.136;11.062;2022-08-01T02:19:18;98079.00;;;19.50
7389;BMP180;3735;50.136;11.062;2022-08-01T02:21:54;98081.00;;;19.30
7389;BMP180;3735;50.136;11.062;2022-08-01T02:27:31;98078.00;;;19.20
7389;BMP180;3735;50.136;11.062;2022-08-01T02:30:07;98077.00;;;19.20
7389;BMP180;3735;50.136;11.062;2022-08-01T02:32:49;98085.00;;;19.10
7389;BMP180;3735;50.136;11.062;2022-08-01T02:35:27;98079.00;;;19.00
7389;BMP180;3735;50.136;11.062;2022-08-01T02:37:57;98091.00;;;18.90
7389;BMP180;3735;50.136;11.062;2022-08-01T02:40:26;98085.00;;;18.80
7389;BMP180;3735;50.136;11.062;2022-08-01T02:42:55;98087.00;;;18.80
7389;BMP180;3735;50.136;11.062;2022-08-01T02:45:25;98096.00;;;18.70
7389;BMP180;3735;50.136;11.062;2022-08-01T02:47:59;98090.00;;;18.60
7389;BMP180;3735;50.136;11.062;2022-08-01T02:50:28;98089.00;;;18.50
7389;BMP180;3735;50.136;11.062;2022-08-01T02:52:56;98091.00;;;18.40
7389;BMP180;3735;50.136;11.062;2022-08-01T02:55:24;98092.00;;;18.40
7389;BMP180;3735;50.136;11.062;2022-08-01T02:57:53;98092.00;;;18.30
7389;BMP180;3735;50.136;11.062;2022-08-01T03:00:20;98102.00;;;18.20
7389;BMP180;3735;50.136;11.062;2022-08-01T03:02:49;98096.00;;;18.10
7389;BMP180;3735;50.136;11.062;2022-08-01T03:05:17;98105.00;;;18.20
7389;BMP180;3735;50.136;11.062;2022-08-01T03:07:43;98105.00;;;18.20
7389;BMP180;3735;50.136;11.062;2022-08-01T03:10:11;98111.00;;;18.20
7389;BMP180;3735;50.136;11.062;2022-08-01T03:12:39;98105.00;;;18.10
7389;BMP180;3735;50.136;11.062;2022-08-01T03:15:07;98113.00;;;18.10
7389;BMP180;3735;50.136;11.062;2022-08-01T03:17:37;98115.00;;;18.10
7389;BMP180;3735;50.136;11.062;2022-08-01T03:20:05;98109.00;;;18.00
7389;BMP180;3735;50.136;11.062;2022-08-01T03:22:33;98118.00;;;18.00
7389;BMP180;3735;50.136;11.062;2022-08-01T03:25:02;98121.00;;;17.90
7389;BMP180;3735;50.136;11.062;2022-08-01T03:27:29;98120.00;;;17.90
7389;BMP180;3735;50.136;11.062;2022-08-01T03:29:58;98119.00;;;17.90
7389;BMP180;3735;50.136;11.062;2022-08-01T03:32:26;98114.00;;;17.90
7389;BMP180;3735;50.136;11.062;2022-08-01T03:34:52;98109.00;;;18.00
7389;BMP180;3735;50.136;11.062;2022-08-01T03:37:29;98109.00;;;18.00
7389;BMP180;3735;50.136;11.062;2022-08-01T03:40:21;98108.00;;;18.00
7389;BMP180;3735;50.136;11.062;2022-08-01T03:42:53;98102.00;;;18.00
7389;BMP180;3735;50.136;11.062;2022-08-01T03:45:27;98111.00;;;17.90
7389;BMP180;3735;50.136;11.062;2022-08-01T03:48:01;98106.00;;;18.00
7389;BMP180;3735;50.136;11.062;2022-08-01T03:50:30;98112.00;;;17.90
7389;BMP180;3735;50.136;11.062;2022-08-01T03:53:01;98093.00;;;17.90
7389;BMP180;3735;50.136;11.062;2022-08-01T03:55:29;98106.00;;;17.90
7389;BMP180;3735;50.136;11.062;2022-08-01T03:57:57;98106.00;;;18.00
7389;BMP180;3735;50.136;11.062;2022-08-01T04:00:24;98106.00;;;18.00
7389;BMP180;3735;50.136;11.062;2022-08-01T04:02:53;98115.00;;;18.00
7389;BMP180;3735;50.136;11.062;2022-08-01T04:05:19;98107.00;;;18.10
7389;BMP180;3735;50.136;11.062;2022-08-01T04:07:48;98098.00;;;18.10
7389;BMP180;3735;50.136;11.062;2022-08-01T04:10:24;98099.00;;;18.20
7389;BMP180;3735;50.136;11.062;2022-08-01T04:12:50;98103.00;;;18.30
7389;BMP180;3735;50.136;11.062;2022-08-01T04:15:17;98112.00;;;18.40
7389;BMP180;3735;50.136;11.062;2022-08-01T04:17:43;98116.00;;;18.40
7389;BMP180;3735;50.136;11.062;2022-08-01T04:20:09;98117.00;;;18.50
7389;BMP180;3735;50.136;11.062;2022-08-01T04:22:37;98116.00;;;18.50
7389;BMP180;3735;50.136;11.062;2022-08-01T04:25:11;98119.00;;;18.60
7389;BMP180;3735;50.136;11.062;2022-08-01T04:27:42;98119.00;;;18.60
7389;BMP180;3735;50.136;11.062;2022-08-01T04:30:12;98117.00;;;18.70
7389;BMP180;3735;50.136;11.062;2022-08-01T04:32:43;98126.00;;;18.80
7389;BMP180;3735;50.136;11.062;2022-08-01T04:35:13;98131.00;;;19.00
7389;BMP180;3735;50.136;11.062;2022-08-01T04:37:45;98124.00;;;19.20
7389;BMP180;3735;50.136;11.062;2022-08-01T04:40:14;98127.00;;;19.30
7389;BMP180;3735;50.136;11.062;2022-08-01T04:42:41;98134.00;;;19.40
7389;BMP180;3735;50.136;11.062;2022-08-01T04:45:08;98132.00;;;19.60
7389;BMP180;3735;50.136;11.062;2022-08-01T04:47:36;98135.00;;;19.70
7389;BMP180;3735;50.136;11.062;2022-08-01T04:50:08;98140.00;;;19.60
7389;BMP180;3735;50.136;11.062;2022-08-01T04:52:36;98138.00;;;19.20
7389;BMP180;3735;50.136;11.062;2022-08-01T04:55:04;98148.00;;;19.20
7389;BMP180;3735;50.136;11.062;2022-08-01T04:57:34;98144.00;;;19.20
7389;BMP180;3735;50.136;11.062;2022-08-01T05:00:02;98159.00;;;19.30
7389;BMP180;3735;50.136;11.062;2022-08-01T05:02:28;98155.00;;;19.30
7389;BMP180;3735;50.136;11.062;2022-08-01T05:04:54;98157.00;;;19.40
7389;BMP180;3735;50.136;11.062;2022-08-01T05:07:20;98156.00;;;19.50
7389;BMP180;3735;50.136;11.062;2022-08-01T05:09:47;98164.00;;;19.60
7389;BMP180;3735;50.136;11.062;2022-08-01T05:12:12;98164.00;;;19.70
7389;BMP180;3735;50.136;11.062;2022-08-01T05:14:39;98156.00;;;19.80
7389;BMP180;3735;50.136;11.062;2022-08-01T05:17:07;98159.00;;;19.70
7389;BMP180;3735;50.136;11.062;2022-08-01T05:19:35;98160.00;;;19.90
7389;BMP180;3735;50.136;11.062;2022-08-01T05:22:03;98157.00;;;20.10
7389;BMP180;3735;50.136;11.062;2022-08-01T05:24:37;98158.00;;;20.40
7389;BMP180;3735;50.136;11.062;2022-08-01T05:27:04;98156.00;;;21.00
7389;BMP180;3735;50.136;11.062;2022-08-01T05:29:30;98148.00;;;21.80
7389;BMP180;3735;50.136;11.062;2022-08-01T05:31:56;98154.00;;;22.70
7389;BMP180;3735;50.136;11.062;2022-08-01T05:34:23;98147.00;;;23.80
7389;BMP180;3735;50.136;11.062;2022-08-01T05:36:49;98143.00;;;24.40
7389;BMP180;3735;50.136;11.062;2022-08-01T05:39:14;98144.00;;;25.30
7389;BMP180;3735;50.136;11.062;2022-08-01T05:41:41;98141.00;;;26.00
7389;BMP180;3735;50.136;11.062;2022-08-01T05:44:07;98146.00;;;26.50
7389;BMP180;3735;50.136;11.062;2022-08-01T05:46:34;98153.00;;;27.00
7389;BMP180;3735;50.136;11.062;2022-08-01T05:49:02;98152.00;;;27.80
7389;BMP180;3735;50.136;11.062;2022-08-01T05:51:28;98153.00;;;28.20
7389;BMP180;3735;50.136;11.062;2022-08-01T05:53:55;98155.00;;;28.80
7389;BMP180;3735;50.136;11.062;2022-08-01T05:56:21;98148.00;;;28.60
7389;BMP180;3735;50.136;11.062;2022-08-01T05:58:48;98154.00;;;28.30
7389;BMP180;3735;50.136;11.062;2022-08-01T06:01:15;98160.00;;;27.00
7389;BMP180;3735;50.136;11.062;2022-08-01T06:03:41;98162.00;;;26.70
7389;BMP180;3735;50.136;11.062;2022-08-01T06:06:07;98158.00;;;26.30
7389;BMP180;3735;50.136;11.062;2022-08-01T06:08:32;98166.00;;;26.00
7389;BMP180;3735;50.136;11.062;2022-08-01T06:10:59;98165.00;;;26.00
7389;BMP180;3735;50.136;11.062;2022-08-01T06:13:25;98171.00;;;25.60
7389;BMP180;3735;50.136;11.062;2022-08-01T06:15:51;98168.00;;;24.80
7389;BMP180;3735;50.136;11.062;2022-08-01T06:18:17;98170.00;;;24.80
7389;BMP180;3735;50.136;11.062;2022-08-01T06:20:44;98177.00;;;24.50
7389;BMP180;3735;50.136;11.062;2022-08-01T06:23:09;98170.00;;;24.20
7389;BMP180;3735;50.136;11.062;2022-08-01T06:25:35;98184.00;;;24.30
7389;BMP180;3735;50.136;11.062;2022-08-01T06:28:02;98188.00;;;23.80
7389;BMP180;3735;50.136;11.062;2022-08-01T06:30:28;98188.00;;;23.10
7389;BMP180;3735;50.136;11.062;2022-08-01T06:32:54;98188.00;;;23.10
7389;BMP180;3735;50.136;11.062;2022-08-01T06:35:22;98187.00;;;23.10
7389;BMP180;3735;50.136;11.062;2022-08-01T06:37:47;98196.00;;;23.90
7389;BMP180;3735;50.136;11.062;2022-08-01T06:40:15;98193.00;;;25.00
7389;BMP180;3735;50.136;11.062;2022-08-01T06:42:41;98182.00;;;25.00
7389;BMP180;3735;50.136;11.062;2022-08-01T06:45:08;98186.00;;;25.00
7389;BMP180;3735;50.136;11.062;2022-08-01T06:47:36;98193.00;;;25.00
7389;BMP180;3735;50.136;11.062;2022-08-01T06:50:04;98194.00;;;24.90
7389;BMP180;3735;50.136;11.062;2022-08-01T06:52:30;98185.00;;;24.70
7389;BMP180;3735;50.136;11.062;2022-08-01T06:54:56;98186.00;;;25.60
7389;BMP180;3735;50.136;11.062;2022-08-01T06:57:21;98193.00;;;25.60
7389;BMP180;3735;50.136;11.062;2022-08-01T06:59:48;98185.00;;;25.90
7389;BMP180;3735;50.136;11.062;2022-08-01T07:02:14;98183.00;;;28.00
7389;BMP180;3735;50.136;11.062;2022-08-01T07:04:40;98182.00;;;29.80
7389;BMP180;3735;50.136;11.062;2022-08-01T07:07:06;98181.00;;;30.40
7389;BMP180;3735;50.136;11.062;2022-08-01T07:09:32;98184.00;;;29.40
7389;BMP180;3735;50.136;11.062;2022-08-01T07:11:57;98194.00;;;29.60
7389;BMP180;3735;50.136;11.062;2022-08-01T07:14:24;98193.00;;;28.60
7389;BMP180;3735;50.136;11.062;2022-08-01T07:16:51;98201.00;;;28.00
7389;BMP180;3735;50.136;11.062;2022-08-01T07:19:17;98201.00;;;26.60
7389;BMP180;3735;50.136;11.062;2022-08-01T07:21:43;98199.00;;;26.20
7389;BMP180;3735;50.136;11.062;2022-08-01T07:24:12;98204.00;;;26.90
7389;BMP180;3735;50.136;11.062;2022-08-01T07:26:40;98197.00;;;27.10
7389;BMP180;3735;50.136;11.062;2022-08-01T07:29:07;98197.00;;;27.30
7389;BMP180;3735;50.136;11.062;2022-08-01T07:31:32;98199.00;;;27.10
7389;BMP180;3735;50.136;11.062;2022-08-01T07:33:58;98195.00;;;27.10
7389;BMP180;3735;50.136;11.062;2022-08-01T07:36:24;98200.00;;;27.40
7389;BMP180;3735;50.136;11.062;2022-08-01T07:38:50;98202.00;;;26.50
7389;BMP180;3735;50.136;11.062;2022-08-01T07:41:16;98204.00;;;26.30
7389;BMP180;3735;50.136;11.062;2022-08-01T07:43:41;98209.00;;;25.70
7389;BMP180;3735;50.136;11.062;2022-08-01T07:46:07;98206.00;;;25.30
7389;BMP180;3735;50.136;11.062;2022-08-01T07:48:33;98207.00;;;24.90
7389;BMP180;3735;50.136;11.062;2022-08-01T07:50:59;98195.00;;;24.70
7389;BMP180;3735;50.136;11.062;2022-08-01T07:53:25;98207.00;;;24.70
7389;BMP180;3735;50.136;11.062;2022-08-01T07:55:52;98208.00;;;24.40
7389;BMP180;3735;50.136;11.062;2022-08-01T07:58:19;98204.00;;;24.70
7389;BMP180;3735;50.136;11.062;2022-08-01T08:00:44;98196.00;;;24.60
7389;BMP180;3735;50.136;11.062;2022-08-01T08:03:10;98203.00;;;24.80
7389;BMP180;3735;50.136;11.062;2022-08-01T08:05:36;98200.00;;;25.00
7389;BMP180;3735;50.136;11.062;2022-08-01T08:08:06;98204.00;;;25.00
7389;BMP180;3735;50.136;11.062;2022-08-01T08:10:33;98202.00;;;24.90
7389;BMP180;3735;50.136;11.062;2022-08-01T08:13:00;98206.00;;;24.90
7389;BMP180;3735;50.136;11.062;2022-08-01T08:15:27;98207.00;;;24.90
7389;BMP180;3735;50.136;11.062;2022-08-01T08:17:53;98215.00;;;25.10
7389;BMP180;3735;50.136;11.062;2022-08-01T08:20:19;98204.00;;;25.30
7389;BMP180;3735;50.136;11.062;2022-08-01T08:22:51;98209.00;;;25.30
7389;BMP180;3735;50.136;11.062;2022-08-01T08:25:17;98195.00;;;25.50
7389;BMP180;3735;50.136;11.062;2022-08-01T08:27:45;98201.00;;;25.30
7389;BMP180;3735;50.136;11.062;2022-08-01T08:30:11;98205.00;;;25.80
7389;BMP180;3735;50.136;11.062;2022-08-01T08:32:38;98198.00;;;26.00
7389;BMP180;3735;50.136;11.062;2022-08-01T08:35:06;98193.00;;;26.50
7389;BMP180;3735;50.136;11.062;2022-08-01T08:37:37;98199.00;;;26.10
7389;BMP180;3735;50.136;11.062;2022-08-01T08:40:04;98205.00;;;26.10
7389;BMP180;3735;50.136;11.062;2022-08-01T08:42:31;98200.00;;;25.70
7389;BMP180;3735;50.136;11.062;2022-08-01T08:44:56;98208.00;;;25.90
7389;BMP180;3735;50.136;11.062;2022-08-01T08:47:25;98201.00;;;25.60
7389;BMP180;3735;50.136;11.062;2022-08-01T08:49:55;98200.00;;;25.90
7389;BMP180;3735;50.136;11.062;2022-08-01T08:52:22;98206.00;;;25.10
7389;BMP180;3735;50.136;11.062;2022-08-01T08:54:50;98208.00;;;25.40
7389;BMP180;3735;50.136;11.062;2022-08-01T08:57:20;98208.00;;;25.30
7389;BMP180;3735;50.136;11.062;2022-08-01T08:59:47;98201.00;;;25.30
7389;BMP180;3735;50.136;11.062;2022-08-01T09:02:13;98203.00;;;26.20
7389;BMP180;3735;50.136;11.062;2022-08-01T09:04:39;98211.00;;;26.30
7389;BMP180;3735;50.136;11.062;2022-08-01T09:07:06;98186.00;;;25.40
7389;BMP180;3735;50.136;11.062;2022-08-01T09:09:33;98218.00;;;25.30
7389;BMP180;3735;50.136;11.062;2022-08-01T09:11:59;98210.00;;;25.20
7389;BMP180;3735;50.136;11.062;2022-08-01T09:14:26;98225.00;;;25.10
7389;BMP180;3735;50.136;11.062;2022-08-01T09:17:07;98227.00;;;24.80
7389;BMP180;3735;50.136;11.062;2022-08-01T09:19:41;98232.00;;;24.60
7389;BMP180;3735;50.136;11.062;2022-08-01T09:22:15;98230.00;;;24.70
7389;BMP180;3735;50.136;11.062;2022-08-01T09:24:59;98239.00;;;24.60
7389;BMP180;3735;50.136;11.062;2022-08-01T09:27:25;98242.00;;;24.70
7389;BMP180;3735;50.136;11.062;2022-08-01T09:29:53;98248.00;;;24.40
7389;BMP180;3735;50.136;11.062;2022-08-01T09:32:20;98263.00;;;24.10
7389;BMP180;3735;50.136;11.062;2022-08-01T09:34:46;98259.00;;;23.80
7389;BMP180;3735;50.136;11.062;2022-08-01T09:37:12;98269.00;;;23.40
7389;BMP180;3735;50.136;11.062;2022-08-01T09:39:43;98274.00;;;23.00
7389;BMP180;3735;50.136;11.062;2022-08-01T09:42:23;98273.00;;;23.00
7389;BMP180;3735;50.136;11.062;2022-08-01T09:44:51;98267.00;;;22.90
7389;BMP180;3735;50.136;11.062;2022-08-01T09:47:19;98280.00;;;22.80
7389;BMP180;3735;50.136;11.062;2022-08-01T09:49:55;98284.00;;;22.90
7389;BMP180;3735;50.136;11.062;2022-08-01T09:52:26;98282.00;;;22.90
7389;BMP180;3735;50.136;11.062;2022-08-01T09:55:03;98284.00;;;23.30
7389;BMP180;3735;50.136;11.062;2022-08-01T09:57:29;98289.00;;;23.80
7389;BMP180;3735;50.136;11.062;2022-08-01T09:59:59;98280.00;;;24.10
7389;BMP180;3735;50.136;11.062;2022-08-01T10:02:36;98279.00;;;24.40
7389;BMP180;3735;50.136;11.062;2022-08-01T10:05:10;98273.00;;;24.30
7389;BMP180;3735;50.136;11.062;2022-08-01T10:07:59;98273.00;;;24.60
7389;BMP180;3735;50.136;11.062;2022-08-01T10:10:27;98268.00;;;25.10
7389;BMP180;3735;50.136;11.062;2022-08-01T10:12:55;98266.00;;;25.70
7389;BMP180;3735;50.136;11.062;2022-08-01T10:15:23;98259.00;;;26.10
7389;BMP180;3735;50.136;11.062;2022-08-01T10:17:58;98254.00;;;26.90
7389;BMP180;3735;50.136;11.062;2022-08-01T10:20:28;98259.00;;;27.70
7389;BMP180;3735;50.136;11.062;2022-08-01T10:22:59;98255.00;;;28.30
7389;BMP180;3735;50.136;11.062;2022-08-01T10:25:29;98257.00;;;28.20
7389;BMP180;3735;50.136;11.062;2022-08-01T10:28:01;98252.00;;;28.40
7389;BMP180;3735;50.136;11.062;2022-08-01T10:30:32;98250.00;;;29.20
7389;BMP180;3735;50.136;11.062;2022-08-01T10:32:59;98254.00;;;28.90
7389;BMP180;3735;50.136;11.062;2022-08-01T10:35:25;98259.00;;;28.90
7389;BMP180;3735;50.136;11.062;2022-08-01T10:37:51;98260.00;;;28.70
7389;BMP180;3735;50.136;11.062;2022-08-01T10:40:22;98250.00;;;29.30
7389;BMP180;3735;50.136;11.062;2022-08-01T10:42:47;98242.00;;;30.90
7389;BMP180;3735;50.136;11.062;2022-08-01T10:45:15;98245.00;;;32.30
7389;BMP180;3735;50.136;11.062;2022-08-01T10:48:05;98240.00;;;31.30
7389;BMP180;3735;50.136;11.062;2022-08-01T10:53:20;98247.00;;;30.50
7389;BMP180;3735;50.136;11.062;2022-08-01T10:58:35;98233.00;;;31.80
7389;BMP180;3735;50.136;11.062;2022-08-01T11:01:45;98235.00;;;32.60
7389;BMP180;3735;50.136;11.062;2022-08-01T11:04:20;98235.00;;;33.40
7389;BMP180;3735;50.136;11.062;2022-08-01T11:07:05;98231.00;;;33.30
7389;BMP180;3735;50.136;11.062;2022-08-01T11:09:42;98228.00;;;33.90
7389;BMP180;3735;50.136;11.062;2022-08-01T11:12:10;98225.00;;;32.90
7389;BMP180;3735;50.136;11.062;2022-08-01T11:17:44;98240.00;;;30.50
7389;BMP180;3735;50.136;11.062;2022-08-01T11:33:13;98240.00;;;31.00
7389;BMP180;3735;50.136;11.062;2022-08-01T11:41:33;98237.00;;;29.90
7389;BMP180;3735;50.136;11.062;2022-08-01T11:44:12;98245.00;;;29.30
7389;BMP180;3735;50.136;11.062;2022-08-01T11:47:05;98248.00;;;29.00
7389;BMP180;3735;50.136;11.062;2022-08-01T11:52:13;98252.00;;;29.40
7389;BMP180;3735;50.136;11.062;2022-08-01T11:54:58;98246.00;;;30.30
7389;BMP180;3735;50.136;11.062;2022-08-01T11:57:30;98253.00;;;31.30
7389;BMP180;3735;50.136;11.062;2022-08-01T12:00:02;98239.00;;;31.40
7389;BMP180;3735;50.136;11.062;2022-08-01T12:02:31;98238.00;;;31.10
7389;BMP180;3735;50.136;11.062;2022-08-01T12:04:59;98233.00;;;31.20
7389;BMP180;3735;50.136;11.062;2022-08-01T12:07:29;98232.00;;;30.80
7389;BMP180;3735;50.136;11.062;2022-08-01T12:10:14;98221.00;;;30.60
7389;BMP180;3735;50.136;11.062;2022-08-01T12:13:01;98239.00;;;30.10
7389;BMP180;3735;50.136;11.062;2022-08-01T12:15:36;98236.00;;;30.00
7389;BMP180;3735;50.136;11.062;2022-08-01T12:18:05;98234.00;;;30.40
7389;BMP180;3735;50.136;11.062;2022-08-01T12:20:38;98238.00;;;30.40
7389;BMP180;3735;50.136;11.062;2022-08-01T12:23:08;98245.00;;;30.40
7389;BMP180;3735;50.136;11.062;2022-08-01T12:25:36;98236.00;;;30.70
7389;BMP180;3735;50.136;11.062;2022-08-01T12:28:07;98237.00;;;31.20
7389;BMP180;3735;50.136;11.062;2022-08-01T12:30:36;98236.00;;;31.80
7389;BMP180;3735;50.136;11.062;2022-08-01T12:33:09;98237.00;;;31.60
7389;BMP180;3735;50.136;11.062;2022-08-01T12:35:37;98229.00;;;31.10
7389;BMP180;3735;50.136;11.062;2022-08-01T12:38:15;98236.00;;;30.30
7389;BMP180;3735;50.136;11.062;2022-08-01T12:40:46;98231.00;;;29.60
7389;BMP180;3735;50.136;11.062;2022-08-01T12:43:19;98227.00;;;29.30
7389;BMP180;3735;50.136;11.062;2022-08-01T12:45:47;98226.00;;;30.10
7389;BMP180;3735;50.136;11.062;2022-08-01T12:48:16;98220.00;;;31.50
7389;BMP180;3735;50.136;11.062;2022-08-01T12:50:46;98225.00;;;32.40
7389;BMP180;3735;50.136;11.062;2022-08-01T12:53:13;98223.00;;;32.90
7389;BMP180;3735;50.136;11.062;2022-08-01T12:55:49;98219.00;;;33.90
7389;BMP180;3735;50.136;11.062;2022-08-01T12:58:17;98227.00;;;34.00
7389;BMP180;3735;50.136;11.062;2022-08-01T13:00:47;98220.00;;;35.00
7389;BMP180;3735;50.136;11.062;2022-08-01T13:03:19;98217.00;;;36.00
7389;BMP180;3735;50.136;11.062;2022-08-01T13:05:45;98220.00;;;36.00
7389;BMP180;3735;50.136;11.062;2022-08-01T13:08:14;98208.00;;;34.90
7389;BMP180;3735;50.136;11.062;2022-08-01T13:10:41;98212.00;;;35.80
7389;BMP180;3735;50.136;11.062;2022-08-01T13:13:09;98209.00;;;37.00
7389;BMP180;3735;50.136;11.062;2022-08-01T13:15:40;98213.00;;;37.00
7389;BMP180;3735;50.136;11.062;2022-08-01T13:18:28;98215.00;;;37.40
7389;BMP180;3735;50.136;11.062;2022-08-01T13:21:13;98209.00;;;36.80
7389;BMP180;3735;50.136;11.062;2022-08-01T13:23:42;98201.00;;;37.50
7389;BMP180;3735;50.136;11.062;2022-08-01T13:26:08;98203.00;;;37.20
7389;BMP180;3735;50.136;11.062;2022-08-01T13:28:34;98199.00;;;37.80
7389;BMP180;3735;50.136;11.062;2022-08-01T13:31:08;98198.00;;;37.50
7389;BMP180;3735;50.136;11.062;2022-08-01T13:34:00;98203.00;;;37.30
7389;BMP180;3735;50.136;11.062;2022-08-01T13:36:27;98201.00;;;37.10
7389;BMP180;3735;50.136;11.062;2022-08-01T13:38:54;98209.00;;;36.70
7389;BMP180;3735;50.136;11.062;2022-08-01T13:41:40;98211.00;;;36.50
7389;BMP180;3735;50.136;11.062;2022-08-01T13:44:06;98219.00;;;35.30
7389;BMP180;3735;50.136;11.062;2022-08-01T13:46:34;98209.00;;;34.60
7389;BMP180;3735;50.136;11.062;2022-08-01T13:49:02;98212.00;;;35.10
7389;BMP180;3735;50.136;11.062;2022-08-01T13:51:28;98202.00;;;35.80
7389;BMP180;3735;50.136;11.062;2022-08-01T13:53:54;98206.00;;;35.50
7389;BMP180;3735;50.136;11.062;2022-08-01T13:56:20;98203.00;;;33.60
7389;BMP180;3735;50.136;11.062;2022-08-01T13:58:46;98206.00;;;32.90
7389;BMP180;3735;50.136;11.062;2022-08-01T14:01:12;98212.00;;;31.60
7389;BMP180;3735;50.136;11.062;2022-08-01T14:03:38;98212.00;;;31.70
7389;BMP180;3735;50.136;11.062;2022-08-01T14:06:04;98214.00;;;31.10
7389;BMP180;3735;50.136;11.062;2022-08-01T14:08:31;98216.00;;;30.80
7389;BMP180;3735;50.136;11.062;2022-08-01T14:10:57;98214.00;;;30.80
7389;BMP180;3735;50.136;11.062;2022-08-01T14:13:28;98205.00;;;30.80
7389;BMP180;3735;50.136;11.062;2022-08-01T14:15:54;98204.00;;;30.70
7389;BMP180;3735;50.136;11.062;2022-08-01T14:18:20;98218.00;;;30.70
7389;BMP180;3735;50.136;11.062;2022-08-01T14:20:46;98223.00;;;30.60
7389;BMP180;3735;50.136;11.062;2022-08-01T14:23:12;98217.00;;;29.90
7389;BMP180;3735;50.136;11.062;2022-08-01T14:25:40;98211.00;;;30.60
7389;BMP180;3735;50.136;11.062;2022-08-01T14:28:07;98213.00;;;31.20
7389;BMP180;3735;50.136;11.062;2022-08-01T14:30:33;98213.00;;;31.00
7389;BMP180;3735;50.136;11.062;2022-08-01T14:32:59;98200.00;;;30.90
7389;BMP180;3735;50.136;11.062;2022-08-01T14:35:25;98215.00;;;31.10
7389;BMP180;3735;50.136;11.062;2022-08-01T14:37:51;98199.00;;;32.20
7389;BMP180;3735;50.136;11.062;2022-08-01T14:40:17;98204.00;;;32.10
7389;BMP180;3735;50.136;11.062;2022-08-01T14:42:43;98207.00;;;31.80
7389;BMP180;3735;50.136;11.062;2022-08-01T14:45:13;98197.00;;;31.90
7389;BMP180;3735;50.136;11.062;2022-08-01T14:47:41;98203.00;;;32.30
7389;BMP180;3735;50.136;11.062;2022-08-01T14:50:14;98200.00;;;33.00
7389;BMP180;3735;50.136;11.062;2022-08-01T14:52:42;98199.00;;;32.20
7389;BMP180;3735;50.136;11.062;2022-08-01T14:55:10;98196.00;;;31.60
7389;BMP180;3735;50.136;11.062;2022-08-01T14:57:38;98202.00;;;30.90
7389;BMP180;3735;50.136;11.062;2022-08-01T15:00:08;98193.00;;;30.50
7389;BMP180;3735;50.136;11.062;2022-08-01T15:02:40;98208.00;;;30.00
7389;BMP180;3735;50.136;11.062;2022-08-01T15:05:07;98206.00;;;29.30
7389;BMP180;3735;50.136;11.062;2022-08-01T15:07:35;98210.00;;;29.20
7389;BMP180;3735;50.136;11.062;2022-08-01T15:10:03;98211.00;;;28.90
7389;BMP180;3735;50.136;11.062;2022-08-01T15:12:29;98203.00;;;29.20
7389;BMP180;3735;50.136;11.062;2022-08-01T15:14:55;98203.00;;;28.90
7389;BMP180;3735;50.136;11.062;2022-08-01T15:17:27;98207.00;;;29.00